Aventura, Florida
Current Conditions -  °F | °C
As of 5:53 PM on Saturday 20 Dec 2014 (Local Time) from KHWO Reporting Station
Clear Clear  
Wind Chill: 73°   Ceiling: Unl
Heat Index: 73°   Visibility: 10mi
Dew Point: 61°   Wind: 5mph
Humidity: 66%   Direction: 140°SE
Pressure: 30.06"   Gusts: NA
Location:  25.9536°N, 80.1568°W
Report Text: KHWO 202253Z 14004KT 10SM CLR 23/16 A3006 RMK AO2 SLP178 T02280161
Loading
Personal Weather Stations






























Interactive Weather Map New forecast layout! Learn more

10-Day Weather Forecast

Advertisements
Track Severe Weather on mobile